sensor_id;sensor_type;location;lat;lon;timestamp;pressure;altitude;pressure_sealevel;temperature;humidity
78741;BME280;68062;48.726;9.370;2023-11-22T00:00:53;99039.03;;;6.78;100.00
78741;BME280;68062;48.726;9.370;2023-11-22T00:03:20;99039.03;;;6.78;100.00
78741;BME280;68062;48.726;9.370;2023-11-22T00:05:49;99038.16;;;6.76;100.00
78741;BME280;68062;48.726;9.370;2023-11-22T00:08:16;99035.75;;;6.86;100.00
78741;BME280;68062;48.726;9.370;2023-11-22T00:10:43;99032.25;;;6.79;100.00
78741;BME280;68062;48.726;9.370;2023-11-22T00:13:12;99042.44;;;6.77;100.00
78741;BME280;68062;48.726;9.370;2023-11-22T00:15:41;99022.84;;;6.78;100.00
78741;BME280;68062;48.726;9.370;2023-11-22T00:18:07;99030.63;;;6.84;100.00
78741;BME280;68062;48.726;9.370;2023-11-22T00:20:34;99028.34;;;6.52;100.00
78741;BME280;68062;48.726;9.370;2023-11-22T00:23:01;99032.13;;;6.73;100.00
78741;BME280;68062;48.726;9.370;2023-11-22T00:25:31;99043.31;;;6.80;100.00
78741;BME280;68062;48.726;9.370;2023-11-22T00:27:58;99044.19;;;6.80;100.00
78741;BME280;68062;48.726;9.370;2023-11-22T00:30:25;99042.25;;;6.67;100.00
78741;BME280;68062;48.726;9.370;2023-11-22T00:32:53;99059.00;;;6.52;100.00
78741;BME280;68062;48.726;9.370;2023-11-22T00:35:22;99043.06;;;6.21;100.00
78741;BME280;68062;48.726;9.370;2023-11-22T00:37:49;99055.56;;;6.07;100.00
78741;BME280;68062;48.726;9.370;2023-11-22T00:40:16;99021.66;;;5.74;100.00
78741;BME280;68062;48.726;9.370;2023-11-22T00:42:43;99035.66;;;5.54;100.00
78741;BME280;68062;48.726;9.370;2023-11-22T00:45:10;99063.09;;;5.63;100.00
78741;BME280;68062;48.726;9.370;2023-11-22T00:47:37;99085.38;;;5.70;100.00
78741;BME280;68062;48.726;9.370;2023-11-22T00:50:08;99069.78;;;5.57;100.00
78741;BME280;68062;48.726;9.370;2023-11-22T00:52:35;99079.84;;;5.53;100.00
78741;BME280;68062;48.726;9.370;2023-11-22T00:55:03;99084.09;;;5.52;100.00
78741;BME280;68062;48.726;9.370;2023-11-22T00:57:31;99076.47;;;5.54;100.00
78741;BME280;68062;48.726;9.370;2023-11-22T00:59:58;99043.53;;;5.25;100.00
78741;BME280;68062;48.726;9.370;2023-11-22T01:02:30;99087.13;;;5.37;100.00
78741;BME280;68062;48.726;9.370;2023-11-22T01:04:58;99059.22;;;5.07;100.00
78741;BME280;68062;48.726;9.370;2023-11-22T01:07:28;99010.66;;;4.68;100.00
78741;BME280;68062;48.726;9.370;2023-11-22T01:09:55;99099.34;;;5.14;100.00
78741;BME280;68062;48.726;9.370;2023-11-22T01:12:22;99065.47;;;4.84;100.00
78741;BME280;68062;48.726;9.370;2023-11-22T01:14:49;99068.03;;;4.86;100.00
78741;BME280;68062;48.726;9.370;2023-11-22T01:17:16;99115.94;;;4.98;100.00
78741;BME280;68062;48.726;9.370;2023-11-22T01:19:44;99124.91;;;4.85;100.00
78741;BME280;68062;48.726;9.370;2023-11-22T01:22:17;99130.72;;;4.79;100.00
78741;BME280;68062;48.726;9.370;2023-11-22T01:24:57;99144.28;;;4.78;100.00
78741;BME280;68062;48.726;9.370;2023-11-22T01:27:33;99116.41;;;4.52;100.00
78741;BME280;68062;48.726;9.370;2023-11-22T01:30:01;99142.16;;;4.63;100.00
78741;BME280;68062;48.726;9.370;2023-11-22T01:32:35;99148.97;;;4.63;100.00
78741;BME280;68062;48.726;9.370;2023-11-22T01:35:06;99129.81;;;4.47;100.00
78741;BME280;68062;48.726;9.370;2023-11-22T01:37:33;99146.31;;;4.60;100.00
78741;BME280;68062;48.726;9.370;2023-11-22T01:40:02;99148.91;;;4.61;100.00
78741;BME280;68062;48.726;9.370;2023-11-22T01:42:29;99144.34;;;4.49;100.00
78741;BME280;68062;48.726;9.370;2023-11-22T01:44:57;99144.72;;;4.33;100.00
78741;BME280;68062;48.726;9.370;2023-11-22T01:47:23;99166.25;;;4.44;100.00
78741;BME280;68062;48.726;9.370;2023-11-22T01:49:51;99135.88;;;4.21;100.00
78741;BME280;68062;48.726;9.370;2023-11-22T01:52:21;99165.00;;;4.30;100.00
78741;BME280;68062;48.726;9.370;2023-11-22T01:54:51;99160.66;;;4.27;100.00
78741;BME280;68062;48.726;9.370;2023-11-22T01:57:21;99171.63;;;4.24;100.00
78741;BME280;68062;48.726;9.370;2023-11-22T01:59:48;99175.28;;;4.05;100.00
78741;BME280;68062;48.726;9.370;2023-11-22T02:02:16;99191.56;;;4.10;100.00
78741;BME280;68062;48.726;9.370;2023-11-22T02:04:43;99195.53;;;4.30;100.00
78741;BME280;68062;48.726;9.370;2023-11-22T02:07:11;99188.25;;;4.13;100.00
78741;BME280;68062;48.726;9.370;2023-11-22T02:09:37;99182.56;;;3.93;100.00
78741;BME280;68062;48.726;9.370;2023-11-22T02:12:05;99216.97;;;4.09;100.00
78741;BME280;68062;48.726;9.370;2023-11-22T02:14:39;99171.47;;;3.91;100.00
78741;BME280;68062;48.726;9.370;2023-11-22T02:17:08;99210.91;;;4.05;100.00
78741;BME280;68062;48.726;9.370;2023-11-22T02:19:36;99222.56;;;4.26;100.00
78741;BME280;68062;48.726;9.370;2023-11-22T02:22:03;99186.66;;;4.17;100.00
78741;BME280;68062;48.726;9.370;2023-11-22T02:24:32;99207.41;;;4.29;100.00
78741;BME280;68062;48.726;9.370;2023-11-22T02:26:59;99209.94;;;4.29;100.00
78741;BME280;68062;48.726;9.370;2023-11-22T02:29:29;99177.50;;;3.94;100.00
78741;BME280;68062;48.726;9.370;2023-11-22T02:31:56;99195.97;;;4.16;100.00
78741;BME280;68062;48.726;9.370;2023-11-22T02:34:24;99211.00;;;4.36;100.00
78741;BME280;68062;48.726;9.370;2023-11-22T02:36:54;99227.31;;;4.42;100.00
78741;BME280;68062;48.726;9.370;2023-11-22T02:39:23;99215.09;;;4.31;100.00
78741;BME280;68062;48.726;9.370;2023-11-22T02:42:08;99228.44;;;4.23;100.00
78741;BME280;68062;48.726;9.370;2023-11-22T02:44:37;99235.19;;;4.21;100.00
78741;BME280;68062;48.726;9.370;2023-11-22T02:47:24;99237.66;;;4.20;100.00
78741;BME280;68062;48.726;9.370;2023-11-22T02:49:55;99251.00;;;4.12;100.00
78741;BME280;68062;48.726;9.370;2023-11-22T02:52:25;99254.03;;;4.01;100.00
78741;BME280;68062;48.726;9.370;2023-11-22T02:54:56;99255.16;;;3.83;100.00
78741;BME280;68062;48.726;9.370;2023-11-22T02:57:24;99202.00;;;3.39;100.00
78741;BME280;68062;48.726;9.370;2023-11-22T02:59:51;99272.78;;;3.77;100.00
78741;BME280;68062;48.726;9.370;2023-11-22T03:02:21;99250.25;;;3.62;100.00
78741;BME280;68062;48.726;9.370;2023-11-22T03:04:52;99242.78;;;3.42;100.00
78741;BME280;68062;48.726;9.370;2023-11-22T03:07:19;99229.59;;;3.28;100.00
78741;BME280;68062;48.726;9.370;2023-11-22T03:09:46;99207.31;;;2.97;100.00
78741;BME280;68062;48.726;9.370;2023-11-22T03:12:13;99276.28;;;3.55;100.00
78741;BME280;68062;48.726;9.370;2023-11-22T03:14:42;99260.16;;;3.30;100.00
78741;BME280;68062;48.726;9.370;2023-11-22T03:17:09;99287.66;;;3.40;100.00
78741;BME280;68062;48.726;9.370;2023-11-22T03:19:36;99272.00;;;3.29;100.00
78741;BME280;68062;48.726;9.370;2023-11-22T03:22:04;99288.06;;;3.28;100.00
78741;BME280;68062;48.726;9.370;2023-11-22T03:24:30;99287.06;;;3.47;100.00
78741;BME280;68062;48.726;9.370;2023-11-22T03:26:59;99294.81;;;3.52;100.00
78741;BME280;68062;48.726;9.370;2023-11-22T03:29:27;99305.56;;;3.43;100.00
78741;BME280;68062;48.726;9.370;2023-11-22T03:31:56;99311.66;;;3.48;100.00
78741;BME280;68062;48.726;9.370;2023-11-22T03:34:24;99320.75;;;3.42;100.00
78741;BME280;68062;48.726;9.370;2023-11-22T03:36:51;99272.13;;;3.09;100.00
78741;BME280;68062;48.726;9.370;2023-11-22T03:39:20;99339.81;;;3.30;100.00
78741;BME280;68062;48.726;9.370;2023-11-22T03:41:48;99328.97;;;3.34;100.00
78741;BME280;68062;48.726;9.370;2023-11-22T03:44:16;99293.63;;;3.18;100.00
78741;BME280;68062;48.726;9.370;2023-11-22T03:50:05;99360.13;;;3.29;100.00
78741;BME280;68062;48.726;9.370;2023-11-22T03:52:37;99351.34;;;3.20;100.00
78741;BME280;68062;48.726;9.370;2023-11-22T03:55:07;99350.47;;;3.20;100.00
78741;BME280;68062;48.726;9.370;2023-11-22T03:57:34;99325.00;;;2.96;100.00
78741;BME280;68062;48.726;9.370;2023-11-22T04:00:04;99364.28;;;3.04;100.00
78741;BME280;68062;48.726;9.370;2023-11-22T04:02:38;99355.50;;;2.96;100.00
78741;BME280;68062;48.726;9.370;2023-11-22T04:05:18;99366.88;;;3.05;100.00
78741;BME280;68062;48.726;9.370;2023-11-22T04:07:48;99370.28;;;3.06;100.00
78741;BME280;68062;48.726;9.370;2023-11-22T04:10:20;99366.22;;;2.88;100.00
78741;BME280;68062;48.726;9.370;2023-11-22T04:12:47;99359.00;;;2.76;100.00
78741;BME280;68062;48.726;9.370;2023-11-22T04:15:18;99379.06;;;2.91;100.00
78741;BME280;68062;48.726;9.370;2023-11-22T04:17:45;99392.25;;;2.83;100.00
78741;BME280;68062;48.726;9.370;2023-11-22T04:20:13;99371.75;;;2.78;100.00
78741;BME280;68062;48.726;9.370;2023-11-22T04:22:44;99379.22;;;2.96;100.00
78741;BME280;68062;48.726;9.370;2023-11-22T04:25:18;99369.03;;;2.73;100.00
78741;BME280;68062;48.726;9.370;2023-11-22T04:27:46;99369.78;;;2.71;100.00
78741;BME280;68062;48.726;9.370;2023-11-22T04:30:13;99404.91;;;2.81;100.00
78741;BME280;68062;48.726;9.370;2023-11-22T04:32:51;99407.97;;;2.95;100.00
78741;BME280;68062;48.726;9.370;2023-11-22T04:35:52;99342.31;;;2.39;100.00
78741;BME280;68062;48.726;9.370;2023-11-22T04:38:20;99411.28;;;2.71;100.00
78741;BME280;68062;48.726;9.370;2023-11-22T04:40:48;99418.41;;;2.80;100.00
78741;BME280;68062;48.726;9.370;2023-11-22T04:43:16;99414.31;;;2.84;100.00
78741;BME280;68062;48.726;9.370;2023-11-22T04:45:43;99380.09;;;2.53;100.00
78741;BME280;68062;48.726;9.370;2023-11-22T04:48:10;99412.16;;;2.72;100.00
78741;BME280;68062;48.726;9.370;2023-11-22T04:50:40;99293.47;;;2.02;100.00
78741;BME280;68062;48.726;9.370;2023-11-22T04:53:08;99402.44;;;2.61;100.00
78741;BME280;68062;48.726;9.370;2023-11-22T04:55:40;99423.78;;;2.88;100.00
78741;BME280;68062;48.726;9.370;2023-11-22T04:58:15;99397.47;;;2.64;100.00
78741;BME280;68062;48.726;9.370;2023-11-22T05:00:50;99435.28;;;2.78;100.00
78741;BME280;68062;48.726;9.370;2023-11-22T05:03:20;99430.53;;;2.66;100.00
78741;BME280;68062;48.726;9.370;2023-11-22T05:05:49;99437.63;;;2.52;100.00
78741;BME280;68062;48.726;9.370;2023-11-22T05:08:16;99444.88;;;2.64;100.00
78741;BME280;68062;48.726;9.370;2023-11-22T05:10:53;99461.22;;;2.71;100.00
78741;BME280;68062;48.726;9.370;2023-11-22T05:13:20;99437.34;;;2.46;100.00
78741;BME280;68062;48.726;9.370;2023-11-22T05:15:48;99461.41;;;2.54;100.00
78741;BME280;68062;48.726;9.370;2023-11-22T05:18:34;99468.97;;;2.53;100.00
78741;BME280;68062;48.726;9.370;2023-11-22T05:21:10;99455.75;;;2.40;100.00
78741;BME280;68062;48.726;9.370;2023-11-22T05:23:44;99465.53;;;2.31;100.00
78741;BME280;68062;48.726;9.370;2023-11-22T05:26:12;99476.13;;;2.22;100.00
78741;BME280;68062;48.726;9.370;2023-11-22T05:28:39;99481.88;;;2.18;100.00
78741;BME280;68062;48.726;9.370;2023-11-22T05:31:06;99484.94;;;2.11;100.00
78741;BME280;68062;48.726;9.370;2023-11-22T05:33:33;99483.28;;;2.11;100.00
78741;BME280;68062;48.726;9.370;2023-11-22T05:35:59;99482.50;;;2.12;100.00
78741;BME280;68062;48.726;9.370;2023-11-22T05:38:26;99490.69;;;2.06;100.00
78741;BME280;68062;48.726;9.370;2023-11-22T05:40:53;99486.38;;;2.04;100.00
78741;BME280;68062;48.726;9.370;2023-11-22T05:43:21;99501.38;;;1.99;100.00
78741;BME280;68062;48.726;9.370;2023-11-22T05:45:52;99498.84;;;1.99;100.00
78741;BME280;68062;48.726;9.370;2023-11-22T05:48:19;99499.63;;;1.98;100.00
78741;BME280;68062;48.726;9.370;2023-11-22T05:50:47;99493.63;;;2.16;100.00
78741;BME280;68062;48.726;9.370;2023-11-22T05:53:14;99491.75;;;2.12;100.00
78741;BME280;68062;48.726;9.370;2023-11-22T05:55:45;99494.38;;;2.13;100.00
78741;BME280;68062;48.726;9.370;2023-11-22T05:58:12;99511.41;;;2.16;100.00
78741;BME280;68062;48.726;9.370;2023-11-22T06:00:40;99508.88;;;2.16;100.00
78741;BME280;68062;48.726;9.370;2023-11-22T06:03:07;99521.56;;;2.16;100.00
78741;BME280;68062;48.726;9.370;2023-11-22T06:05:34;99520.75;;;2.17;100.00
78741;BME280;68062;48.726;9.370;2023-11-22T06:08:00;99510.59;;;2.17;100.00
78741;BME280;68062;48.726;9.370;2023-11-22T06:10:28;99525.16;;;2.21;100.00
78741;BME280;68062;48.726;9.370;2023-11-22T06:12:55;99531.56;;;2.13;100.00
78741;BME280;68062;48.726;9.370;2023-11-22T06:15:21;99539.97;;;2.12;100.00
78741;BME280;68062;48.726;9.370;2023-11-22T06:17:50;99542.59;;;2.13;100.00
78741;BME280;68062;48.726;9.370;2023-11-22T06:20:17;99545.59;;;2.24;100.00
78741;BME280;68062;48.726;9.370;2023-11-22T06:22:44;99542.41;;;2.28;100.00
78741;BME280;68062;48.726;9.370;2023-11-22T06:25:11;99551.63;;;2.26;100.00
78741;BME280;68062;48.726;9.370;2023-11-22T06:27:38;99549.69;;;2.20;100.00
78741;BME280;68062;48.726;9.370;2023-11-22T06:30:06;99572.81;;;2.27;100.00
78741;BME280;68062;48.726;9.370;2023-11-22T06:32:34;99568.25;;;2.19;100.00
78741;BME280;68062;48.726;9.370;2023-11-22T06:35:03;99573.25;;;2.18;100.00
78741;BME280;68062;48.726;9.370;2023-11-22T06:37:30;99581.09;;;2.23;100.00
78741;BME280;68062;48.726;9.370;2023-11-22T06:39:57;99577.13;;;2.29;100.00
78741;BME280;68062;48.726;9.370;2023-11-22T06:42:24;99586.56;;;2.32;100.00
78741;BME280;68062;48.726;9.370;2023-11-22T06:44:52;99579.81;;;2.32;100.00
78741;BME280;68062;48.726;9.370;2023-11-22T06:47:19;99573.66;;;2.27;100.00
78741;BME280;68062;48.726;9.370;2023-11-22T06:49:46;99580.16;;;2.20;100.00
78741;BME280;68062;48.726;9.370;2023-11-22T06:52:14;99584.88;;;2.32;100.00
78741;BME280;68062;48.726;9.370;2023-11-22T06:54:42;99578.84;;;2.48;98.04
78741;BME280;68062;48.726;9.370;2023-11-22T06:57:09;99585.97;;;2.38;100.00
78741;BME280;68062;48.726;9.370;2023-11-22T06:59:35;99590.97;;;2.36;100.00
78741;BME280;68062;48.726;9.370;2023-11-22T07:02:03;99597.66;;;2.34;100.00
78741;BME280;68062;48.726;9.370;2023-11-22T07:04:29;99602.13;;;2.40;100.00
78741;BME280;68062;48.726;9.370;2023-11-22T07:06:56;99591.97;;;2.40;100.00
78741;BME280;68062;48.726;9.370;2023-11-22T07:09:24;99590.22;;;2.39;100.00
78741;BME280;68062;48.726;9.370;2023-11-22T07:11:51;99590.50;;;2.45;100.00
78741;BME280;68062;48.726;9.370;2023-11-22T07:14:18;99551.44;;;2.22;100.00
78741;BME280;68062;48.726;9.370;2023-11-22T07:16:45;99600.59;;;2.43;100.00
78741;BME280;68062;48.726;9.370;2023-11-22T07:19:12;99592.63;;;2.35;100.00
78741;BME280;68062;48.726;9.370;2023-11-22T07:21:38;99594.47;;;2.38;100.00
78741;BME280;68062;48.726;9.370;2023-11-22T07:24:06;99599.72;;;2.43;100.00
78741;BME280;68062;48.726;9.370;2023-11-22T07:26:36;99603.16;;;2.43;100.00
78741;BME280;68062;48.726;9.370;2023-11-22T07:29:02;99615.84;;;2.43;100.00
78741;BME280;68062;48.726;9.370;2023-11-22T07:31:30;99621.25;;;2.51;100.00
78741;BME280;68062;48.726;9.370;2023-11-22T07:33:57;99618.00;;;2.54;100.00
78741;BME280;68062;48.726;9.370;2023-11-22T07:36:27;99633.22;;;2.54;100.00
78741;BME280;68062;48.726;9.370;2023-11-22T07:38:53;99633.38;;;2.57;100.00
78741;BME280;68062;48.726;9.370;2023-11-22T07:41:20;99647.47;;;2.70;100.00
78741;BME280;68062;48.726;9.370;2023-11-22T07:43:49;99650.25;;;2.76;100.00
78741;BME280;68062;48.726;9.370;2023-11-22T07:46:16;99656.19;;;2.76;100.00
78741;BME280;68062;48.726;9.370;2023-11-22T07:48:44;99673.00;;;2.73;100.00
78741;BME280;68062;48.726;9.370;2023-11-22T07:51:13;99675.28;;;2.86;99.87
78741;BME280;68062;48.726;9.370;2023-11-22T07:53:40;99671.66;;;2.81;98.81
78741;BME280;68062;48.726;9.370;2023-11-22T07:56:08;99670.59;;;2.76;99.17
78741;BME280;68062;48.726;9.370;2023-11-22T07:58:37;99671.84;;;2.66;100.00
78741;BME280;68062;48.726;9.370;2023-11-22T08:01:05;99638.84;;;2.28;100.00
78741;BME280;68062;48.726;9.370;2023-11-22T08:03:39;99666.69;;;2.45;100.00
78741;BME280;68062;48.726;9.370;2023-11-22T08:06:09;99669.22;;;2.45;100.00
78741;BME280;68062;48.726;9.370;2023-11-22T08:08:36;99674.09;;;2.40;100.00
78741;BME280;68062;48.726;9.370;2023-11-22T08:11:05;99664.41;;;2.51;100.00
78741;BME280;68062;48.726;9.370;2023-11-22T08:13:40;99625.09;;;2.23;100.00
78741;BME280;68062;48.726;9.370;2023-11-22T08:16:09;99670.66;;;2.58;100.00
78741;BME280;68062;48.726;9.370;2023-11-22T08:18:38;99673.72;;;2.50;100.00
78741;BME280;68062;48.726;9.370;2023-11-22T08:21:06;99673.50;;;2.46;100.00
78741;BME280;68062;48.726;9.370;2023-11-22T08:23:34;99674.28;;;2.45;100.00
78741;BME280;68062;48.726;9.370;2023-11-22T08:26:01;99670.81;;;2.43;100.00
78741;BME280;68062;48.726;9.370;2023-11-22T08:28:29;99672.28;;;2.38;100.00
78741;BME280;68062;48.726;9.370;2023-11-22T08:30:56;99675.56;;;2.35;100.00
78741;BME280;68062;48.726;9.370;2023-11-22T08:33:24;99672.50;;;2.42;100.00
78741;BME280;68062;48.726;9.370;2023-11-22T08:35:50;99674.53;;;2.49;100.00
78741;BME280;68062;48.726;9.370;2023-11-22T08:38:24;99682.13;;;2.49;100.00
78741;BME280;68062;48.726;9.370;2023-11-22T08:40:51;99680.88;;;2.59;100.00
78741;BME280;68062;48.726;9.370;2023-11-22T08:43:20;99678.47;;;2.62;100.00
78741;BME280;68062;48.726;9.370;2023-11-22T08:45:49;99625.72;;;2.37;100.00
78741;BME280;68062;48.726;9.370;2023-11-22T08:48:16;99676.00;;;2.64;100.00
78741;BME280;68062;48.726;9.370;2023-11-22T08:50:44;99680.81;;;2.58;100.00
78741;BME280;68062;48.726;9.370;2023-11-22T08:53:13;99680.00;;;2.78;100.00
78741;BME280;68062;48.726;9.370;2023-11-22T08:55:40;99679.28;;;3.01;100.00
78741;BME280;68062;48.726;9.370;2023-11-22T08:58:09;99682.94;;;3.07;100.00
78741;BME280;68062;48.726;9.370;2023-11-22T09:00:36;99679.69;;;3.10;100.00
78741;BME280;68062;48.726;9.370;2023-11-22T09:03:03;99673.72;;;3.09;100.00
78741;BME280;68062;48.726;9.370;2023-11-22T09:05:30;99680.22;;;3.03;100.00
78741;BME280;68062;48.726;9.370;2023-11-22T09:07:58;99682.94;;;3.07;100.00
78741;BME280;68062;48.726;9.370;2023-11-22T09:10:25;99682.09;;;3.07;100.00
78741;BME280;68062;48.726;9.370;2023-11-22T09:12:52;99673.78;;;3.11;100.00
78741;BME280;68062;48.726;9.370;2023-11-22T09:15:19;99674.47;;;3.07;100.00
78741;BME280;68062;48.726;9.370;2023-11-22T09:17:52;99673.00;;;3.12;100.00
78741;BME280;68062;48.726;9.370;2023-11-22T09:20:19;99669.91;;;3.19;100.00
78741;BME280;68062;48.726;9.370;2023-11-22T09:22:48;99642.16;;;2.85;100.00
78741;BME280;68062;48.726;9.370;2023-11-22T09:25:17;99679.69;;;3.10;100.00
78741;BME280;68062;48.726;9.370;2023-11-22T09:27:45;99675.84;;;3.00;100.00
78741;BME280;68062;48.726;9.370;2023-11-22T09:30:15;99685.75;;;3.14;100.00
78741;BME280;68062;48.726;9.370;2023-11-22T09:32:57;99682.91;;;3.06;100.00
78741;BME280;68062;48.726;9.370;2023-11-22T09:35:24;99686.41;;;3.09;100.00
78741;BME280;68062;48.726;9.370;2023-11-22T09:37:51;99684.06;;;3.34;99.67
78741;BME280;68062;48.726;9.370;2023-11-22T09:40:21;99682.88;;;3.26;100.00
78741;BME280;68062;48.726;9.370;2023-11-22T09:42:48;99689.56;;;3.23;100.00
78741;BME280;68062;48.726;9.370;2023-11-22T09:45:16;99691.78;;;3.16;100.00
78741;BME280;68062;48.726;9.370;2023-11-22T09:47:44;99689.03;;;3.11;100.00
78741;BME280;68062;48.726;9.370;2023-11-22T09:50:15;99690.66;;;3.09;100.00
78741;BME280;68062;48.726;9.370;2023-11-22T09:52:46;99703.16;;;3.04;100.00
78741;BME280;68062;48.726;9.370;2023-11-22T09:55:16;99708.97;;;3.02;100.00
78741;BME280;68062;48.726;9.370;2023-11-22T09:57:45;99714.34;;;3.08;100.00
78741;BME280;68062;48.726;9.370;2023-11-22T10:00:13;99715.72;;;3.01;100.00
78741;BME280;68062;48.726;9.370;2023-11-22T10:02:44;99707.03;;;2.96;100.00
78741;BME280;68062;48.726;9.370;2023-11-22T10:05:12;99731.78;;;3.00;100.00
78741;BME280;68062;48.726;9.370;2023-11-22T10:07:39;99730.44;;;3.08;100.00
78741;BME280;68062;48.726;9.370;2023-11-22T10:10:06;99735.47;;;3.07;99.62
78741;BME280;68062;48.726;9.370;2023-11-22T10:12:36;99744.69;;;3.05;99.16
78741;BME280;68062;48.726;9.370;2023-11-22T10:15:13;99752.19;;;3.02;100.00
78741;BME280;68062;48.726;9.370;2023-11-22T10:17:47;99758.66;;;2.95;100.00
78741;BME280;68062;48.726;9.370;2023-11-22T10:20:14;99745.63;;;2.87;100.00
78741;BME280;68062;48.726;9.370;2023-11-22T10:22:46;99745.28;;;2.99;100.00
78741;BME280;68062;48.726;9.370;2023-11-22T10:25:14;99741.94;;;3.00;100.00
78741;BME280;68062;48.726;9.370;2023-11-22T10:27:45;99740.59;;;3.08;100.00
78741;BME280;68062;48.726;9.370;2023-11-22T10:30:14;99742.47;;;3.13;100.00
78741;BME280;68062;48.726;9.370;2023-11-22T10:32:41;99735.06;;;2.98;99.82
78741;BME280;68062;48.726;9.370;2023-11-22T10:35:08;99734.25;;;2.99;100.00
78741;BME280;68062;48.726;9.370;2023-11-22T10:37:35;99743.91;;;3.06;100.00
78741;BME280;68062;48.726;9.370;2023-11-22T10:40:02;99742.56;;;3.14;99.96
78741;BME280;68062;48.726;9.370;2023-11-22T10:42:33;99740.97;;;3.16;99.72
78741;BME280;68062;48.726;9.370;2023-11-22T10:45:00;99743.50;;;3.16;99.92
78741;BME280;68062;48.726;9.370;2023-11-22T10:47:30;99746.34;;;3.24;99.35
78741;BME280;68062;48.726;9.370;2023-11-22T10:49:58;99747.81;;;3.19;98.76
78741;BME280;68062;48.726;9.370;2023-11-22T10:52:27;99750.50;;;3.22;99.66
78741;BME280;68062;48.726;9.370;2023-11-22T10:55:01;99744.75;;;3.26;100.00
78741;BME280;68062;48.726;9.370;2023-11-22T10:57:31;99737.13;;;3.26;97.89
78741;BME280;68062;48.726;9.370;2023-11-22T11:00:03;99748.72;;;3.19;97.52
78741;BME280;68062;48.726;9.370;2023-11-22T11:02:40;99716.25;;;2.94;97.98
78741;BME280;68062;48.726;9.370;2023-11-22T11:05:12;99749.69;;;3.23;97.42
78741;BME280;68062;48.726;9.370;2023-11-22T11:07:48;99747.28;;;3.26;97.32
78741;BME280;68062;48.726;9.370;2023-11-22T11:10:19;99749.91;;;3.28;97.74
78741;BME280;68062;48.726;9.370;2023-11-22T11:12:46;99757.53;;;3.28;97.76
78741;BME280;68062;48.726;9.370;2023-11-22T11:15:14;99760.28;;;3.32;97.58
78741;BME280;68062;48.726;9.370;2023-11-22T11:17:44;99759.34;;;3.30;98.02
78741;BME280;68062;48.726;9.370;2023-11-22T11:20:16;99763.03;;;3.17;98.02
78741;BME280;68062;48.726;9.370;2023-11-22T11:22:44;99760.63;;;3.20;97.04
78741;BME280;68062;48.726;9.370;2023-11-22T11:25:15;99760.81;;;3.25;97.20
78741;BME280;68062;48.726;9.370;2023-11-22T11:27:44;99762.38;;;3.21;97.68
78741;BME280;68062;48.726;9.370;2023-11-22T11:30:45;99758.66;;;3.15;97.19
78741;BME280;68062;48.726;9.370;2023-11-22T11:33:17;99755.00;;;3.28;96.83
78741;BME280;68062;48.726;9.370;2023-11-22T11:35:46;99753.97;;;3.24;96.82
78741;BME280;68062;48.726;9.370;2023-11-22T11:38:14;99749.16;;;3.11;96.80
78741;BME280;68062;48.726;9.370;2023-11-22T11:40:46;99758.22;;;3.23;97.02
78741;BME280;68062;48.726;9.370;2023-11-22T11:43:14;99744.56;;;3.21;96.71
78741;BME280;68062;48.726;9.370;2023-11-22T11:45:53;99739.41;;;3.20;96.79
78741;BME280;68062;48.726;9.370;2023-11-22T11:48:21;99756.47;;;3.22;97.39
78741;BME280;68062;48.726;9.370;2023-11-22T11:50:52;99757.59;;;3.09;96.65
78741;BME280;68062;48.726;9.370;2023-11-22T11:53:19;99770.97;;;3.25;95.29
78741;BME280;68062;48.726;9.370;2023-11-22T11:55:46;99779.41;;;3.24;94.25
78741;BME280;68062;48.726;9.370;2023-11-22T11:58:16;99786.34;;;3.08;94.65
78741;BME280;68062;48.726;9.370;2023-11-22T12:00:43;99786.41;;;2.90;95.39
78741;BME280;68062;48.726;9.370;2023-11-22T12:03:09;99790.31;;;3.02;94.76
78741;BME280;68062;48.726;9.370;2023-11-22T12:05:38;99786.53;;;2.93;95.53
78741;BME280;68062;48.726;9.370;2023-11-22T12:08:05;99790.97;;;2.79;95.92
78741;BME280;68062;48.726;9.370;2023-11-22T12:10:32;99800.72;;;2.88;95.68
78741;BME280;68062;48.726;9.370;2023-11-22T12:12:59;99810.09;;;2.89;96.80
78741;BME280;68062;48.726;9.370;2023-11-22T12:15:26;99811.34;;;2.99;95.25
78741;BME280;68062;48.726;9.370;2023-11-22T12:17:54;99811.50;;;3.02;95.10
78741;BME280;68062;48.726;9.370;2023-11-22T12:20:23;99815.34;;;2.94;94.72
78741;BME280;68062;48.726;9.370;2023-11-22T12:22:53;99827.53;;;3.01;94.63
78741;BME280;68062;48.726;9.370;2023-11-22T12:25:19;99838.75;;;3.05;94.75
78741;BME280;68062;48.726;9.370;2023-11-22T12:27:46;99835.63;;;2.92;96.40
78741;BME280;68062;48.726;9.370;2023-11-22T12:30:30;99819.19;;;3.04;93.97
78741;BME280;68062;48.726;9.370;2023-11-22T12:33:01;99833.97;;;3.13;93.75
78741;BME280;68062;48.726;9.370;2023-11-22T12:35:30;99841.41;;;3.08;94.32
78741;BME280;68062;48.726;9.370;2023-11-22T12:37:59;99837.13;;;3.07;93.50
78741;BME280;68062;48.726;9.370;2023-11-22T12:40:28;99841.19;;;3.03;94.36
78741;BME280;68062;48.726;9.370;2023-11-22T12:42:57;99832.44;;;2.97;94.27
78741;BME280;68062;48.726;9.370;2023-11-22T12:45:26;99837.22;;;2.90;94.56
78741;BME280;68062;48.726;9.370;2023-11-22T12:47:54;99825.66;;;2.97;92.65
78741;BME280;68062;48.726;9.370;2023-11-22T12:50:32;99813.03;;;2.99;91.87
78741;BME280;68062;48.726;9.370;2023-11-22T12:53:08;99816.38;;;2.98;92.44
78741;BME280;68062;48.726;9.370;2023-11-22T12:55:36;99812.38;;;3.03;91.87
78741;BME280;68062;48.726;9.370;2023-11-22T12:58:04;99816.09;;;2.91;93.38
78741;BME280;68062;48.726;9.370;2023-11-22T13:00:30;99811.31;;;2.98;92.65
78741;BME280;68062;48.726;9.370;2023-11-22T13:02:58;99809.84;;;3.03;92.45
78741;BME280;68062;48.726;9.370;2023-11-22T13:05:26;99801.88;;;3.15;89.07
78741;BME280;68062;48.726;9.370;2023-11-22T13:07:52;99799.81;;;3.06;88.53
78741;BME280;68062;48.726;9.370;2023-11-22T13:10:20;99810.41;;;2.97;90.30
78741;BME280;68062;48.726;9.370;2023-11-22T13:12:52;99808.94;;;3.02;89.75
78741;BME280;68062;48.726;9.370;2023-11-22T13:15:20;99818.13;;;2.99;90.04